Time;durP1;ratioP1;P1;durP2;ratioP2;P2;SDS_P1;SDS_P2;PMS_P1;PMS_P2;Temp;Humidity;BMP_temperature;BMP_pressure;BME280_temperature;BME280_humidity;BME280_pressure;Samples;Min_cycle;Max_cycle;Signal;HPM_P1;HPM_P2
2020/12/22 00:01:53;;;;;;;34.00;8.18;;;;;;;;;;4972593;28;20043;-72
2020/12/22 00:04:20;;;;;;;34.03;8.98;;;;;;;;;;4970262;28;20498;-72
2020/12/22 00:06:46;;;;;;;19.90;7.65;;;;;;;;;;4966535;28;20039;-72
2020/12/22 00:09:12;;;;;;;26.80;8.80;;;;;;;;;;4969935;28;20046;-72
2020/12/22 00:11:39;;;;;;;25.48;8.93;;;;;;;;;;4970508;28;20529;-72
2020/12/22 00:14:05;;;;;;;30.13;9.82;;;;;;;;;;4972289;28;20510;-72
2020/12/22 00:16:36;;;;;;;31.60;9.23;;;;;;;;;;4964314;28;20127;-72
2020/12/22 00:19:03;;;;;;;32.55;8.27;;;;;;;;;;4968469;28;20039;-73
2020/12/22 00:21:32;;;;;;;25.57;10.07;;;;;;;;;;4969819;28;20058;-72
2020/12/22 00:23:59;;;;;;;25.90;9.27;;;;;;;;;;4970356;28;20306;-72
2020/12/22 00:26:26;;;;;;;35.72;8.95;;;;;;;;;;4968801;28;20043;-72
2020/12/22 00:28:52;;;;;;;27.88;9.32;;;;;;;;;;4971145;28;20049;-72
2020/12/22 00:31:19;;;;;;;36.33;9.95;;;;;;;;;;4971147;28;20043;-72
2020/12/22 00:33:45;;;;;;;34.45;9.27;;;;;;;;;;4970977;28;20394;-72
2020/12/22 00:36:12;;;;;;;28.80;9.32;;;;;;;;;;4968986;28;20164;-72
2020/12/22 00:38:38;;;;;;;24.13;8.05;;;;;;;;;;4971800;28;20410;-72
2020/12/22 00:41:04;;;;;;;21.60;8.10;;;;;;;;;;4968180;28;20047;-72
2020/12/22 00:43:31;;;;;;;24.98;9.30;;;;;;;;;;4968830;28;20093;-72
2020/12/22 00:45:57;;;;;;;25.50;8.30;;;;;;;;;;4959179;28;20043;-72
2020/12/22 00:48:27;;;;;;;24.60;7.90;;;;;;;;;;4948472;28;20106;-72
2020/12/22 00:50:54;;;;;;;23.50;8.20;;;;;;;;;;4954041;28;20043;-73
2020/12/22 00:53:20;;;;;;;25.00;7.75;;;;;;;;;;4943968;28;20524;-72
2020/12/22 00:55:47;;;;;;;24.77;7.77;;;;;;;;;;4969694;28;20050;-72
2020/12/22 00:58:13;;;;;;;24.95;8.73;;;;;;;;;;4949983;28;20810;-72
2020/12/22 01:00:41;;;;;;;30.45;7.93;;;;;;;;;;4937996;28;20130;-72
2020/12/22 01:03:07;;;;;;;21.20;8.10;;;;;;;;;;4964261;28;20035;-72
2020/12/22 01:05:33;;;;;;;15.80;7.93;;;;;;;;;;4968175;28;20117;-72
2020/12/22 01:07:59;;;;;;;20.23;7.25;;;;;;;;;;4970485;28;20062;-72
2020/12/22 01:10:26;;;;;;;22.92;6.80;;;;;;;;;;4960912;28;20110;-72
2020/12/22 01:12:53;;;;;;;25.88;7.43;;;;;;;;;;4967945;28;20049;-72
2020/12/22 01:15:20;;;;;;;22.77;6.78;;;;;;;;;;4966355;28;20137;-72
2020/12/22 01:17:47;;;;;;;21.38;6.53;;;;;;;;;;4964622;28;20043;-72
2020/12/22 01:20:14;;;;;;;19.20;6.47;;;;;;;;;;4969779;28;20053;-72
2020/12/22 01:22:42;;;;;;;22.13;5.80;;;;;;;;;;4970365;28;20047;-72
2020/12/22 01:25:08;;;;;;;30.63;7.30;;;;;;;;;;4970764;28;20049;-72
2020/12/22 01:27:34;;;;;;;23.83;6.63;;;;;;;;;;4967791;28;20051;-72
2020/12/22 01:30:01;;;;;;;27.90;6.82;;;;;;;;;;4966079;28;20102;-72
2020/12/22 01:32:27;;;;;;;15.52;5.43;;;;;;;;;;4969845;28;20568;-72
2020/12/22 01:34:54;;;;;;;16.48;6.85;;;;;;;;;;4961874;28;20066;-73
2020/12/22 01:37:20;;;;;;;15.18;4.63;;;;;;;;;;4965767;28;20507;-72
2020/12/22 01:39:46;;;;;;;18.63;5.72;;;;;;;;;;4966885;28;20102;-72
2020/12/22 01:42:14;;;;;;;14.45;5.68;;;;;;;;;;4965281;28;20043;-72
2020/12/22 01:44:40;;;;;;;18.65;6.53;;;;;;;;;;4969469;28;20068;-72
2020/12/22 01:47:07;;;;;;;23.48;5.50;;;;;;;;;;4963424;28;20043;-72
2020/12/22 01:49:35;;;;;;;20.90;6.85;;;;;;;;;;4964383;28;20098;-72
2020/12/22 01:52:01;;;;;;;25.50;6.53;;;;;;;;;;4969641;28;20455;-72
2020/12/22 01:54:27;;;;;;;20.20;5.03;;;;;;;;;;4966876;28;20550;-72
2020/12/22 01:56:54;;;;;;;19.23;5.95;;;;;;;;;;4968451;28;20039;-72
2020/12/22 01:59:20;;;;;;;26.17;6.20;;;;;;;;;;4964236;28;20451;-72
2020/12/22 02:01:48;;;;;;;18.83;5.22;;;;;;;;;;4963820;28;20053;-72
2020/12/22 02:04:15;;;;;;;17.25;5.88;;;;;;;;;;4966919;28;20057;-72
2020/12/22 02:06:42;;;;;;;16.95;4.93;;;;;;;;;;4966695;28;20460;-72
2020/12/22 02:09:09;;;;;;;20.27;5.38;;;;;;;;;;4966380;28;20046;-72
2020/12/22 02:11:36;;;;;;;18.85;4.78;;;;;;;;;;4963699;28;20043;-72
2020/12/22 02:14:03;;;;;;;15.98;5.00;;;;;;;;;;4963385;28;20047;-72
2020/12/22 02:16:29;;;;;;;28.43;5.60;;;;;;;;;;4960749;28;20103;-72
2020/12/22 02:18:56;;;;;;;13.13;4.53;;;;;;;;;;4962573;28;20038;-72
2020/12/22 02:21:22;;;;;;;15.13;5.25;;;;;;;;;;4961673;28;20043;-72
2020/12/22 02:23:49;;;;;;;14.67;5.10;;;;;;;;;;4965416;28;20043;-72
2020/12/22 02:26:16;;;;;;;25.05;4.32;;;;;;;;;;4939002;28;20305;-72
2020/12/22 02:28:42;;;;;;;13.85;3.95;;;;;;;;;;4963869;28;20046;-72
2020/12/22 02:31:09;;;;;;;13.68;4.85;;;;;;;;;;4964033;28;20162;-72
2020/12/22 02:33:35;;;;;;;9.68;3.25;;;;;;;;;;4966587;28;20058;-72
2020/12/22 02:36:06;;;;;;;21.63;5.50;;;;;;;;;;4966468;28;20043;-72
2020/12/22 02:38:32;;;;;;;14.68;4.20;;;;;;;;;;4962427;28;20047;-72
2020/12/22 02:40:59;;;;;;;17.77;4.53;;;;;;;;;;4963501;28;20045;-72
2020/12/22 02:43:25;;;;;;;22.02;5.78;;;;;;;;;;4966669;28;20098;-72
2020/12/22 02:45:51;;;;;;;22.88;4.90;;;;;;;;;;4967222;28;20039;-71
2020/12/22 02:48:18;;;;;;;15.05;4.28;;;;;;;;;;4967813;28;20038;-72
2020/12/22 02:50:44;;;;;;;13.07;3.97;;;;;;;;;;4961047;28;20046;-72
2020/12/22 02:53:10;;;;;;;15.88;4.75;;;;;;;;;;4965566;28;20047;-72
2020/12/22 02:55:36;;;;;;;10.45;3.03;;;;;;;;;;4965730;28;20052;-72
2020/12/22 02:58:02;;;;;;;10.77;4.63;;;;;;;;;;4965130;28;20039;-72
2020/12/22 03:00:30;;;;;;;11.57;3.80;;;;;;;;;;4965923;28;20054;-73
2020/12/22 03:02:56;;;;;;;15.50;3.95;;;;;;;;;;4965778;28;20054;-72
2020/12/22 03:05:22;;;;;;;20.45;4.53;;;;;;;;;;4965958;28;20043;-72
2020/12/22 03:07:48;;;;;;;14.02;4.72;;;;;;;;;;4967916;28;20502;-72
2020/12/22 03:10:16;;;;;;;16.88;3.58;;;;;;;;;;4952505;28;20103;-72
2020/12/22 03:12:42;;;;;;;17.58;3.67;;;;;;;;;;4948576;28;20046;-71
2020/12/22 03:15:09;;;;;;;12.75;4.18;;;;;;;;;;4947708;28;20047;-72
2020/12/22 03:17:36;;;;;;;13.02;3.88;;;;;;;;;;4948273;28;20101;-72
2020/12/22 03:20:03;;;;;;;15.18;4.28;;;;;;;;;;4942510;28;20046;-72
2020/12/22 03:22:30;;;;;;;8.50;3.33;;;;;;;;;;4945389;28;20050;-72
2020/12/22 03:24:56;;;;;;;15.45;4.15;;;;;;;;;;4954283;28;20125;-71
2020/12/22 03:27:22;;;;;;;10.90;3.28;;;;;;;;;;4945038;28;20044;-72
2020/12/22 03:29:48;;;;;;;20.48;4.53;;;;;;;;;;4948470;28;20039;-72
2020/12/22 03:32:15;;;;;;;10.52;3.83;;;;;;;;;;4944279;28;20118;-72
2020/12/22 03:34:41;;;;;;;15.82;4.05;;;;;;;;;;4944194;28;20094;-73
2020/12/22 03:37:07;;;;;;;18.83;4.85;;;;;;;;;;4953343;28;20039;-72
2020/12/22 03:39:33;;;;;;;11.77;3.88;;;;;;;;;;4949758;28;20065;-72
2020/12/22 03:42:00;;;;;;;19.27;4.53;;;;;;;;;;4948639;28;20043;-72
2020/12/22 03:44:26;;;;;;;16.35;4.38;;;;;;;;;;4946392;28;20099;-72
2020/12/22 03:46:52;;;;;;;17.75;4.95;;;;;;;;;;4945057;28;20051;-72
2020/12/22 03:49:18;;;;;;;11.77;3.75;;;;;;;;;;4941152;28;20050;-72
2020/12/22 03:51:45;;;;;;;12.90;3.70;;;;;;;;;;4941934;28;20052;-72
2020/12/22 03:54:12;;;;;;;15.93;4.20;;;;;;;;;;4945251;29;20502;-72
2020/12/22 03:56:39;;;;;;;13.05;3.90;;;;;;;;;;4940825;28;20056;-72
2020/12/22 03:59:06;;;;;;;17.40;4.20;;;;;;;;;;4940435;28;20051;-72
2020/12/22 04:01:32;;;;;;;22.63;3.87;;;;;;;;;;4945121;28;20051;-72
2020/12/22 04:03:58;;;;;;;18.08;3.95;;;;;;;;;;4942981;28;20299;-72
2020/12/22 04:06:24;;;;;;;10.23;3.15;;;;;;;;;;4945790;28;20048;-72
2020/12/22 04:08:51;;;;;;;11.95;4.35;;;;;;;;;;4954135;28;20083;-72
2020/12/22 04:11:18;;;;;;;25.38;4.18;;;;;;;;;;4960780;28;20517;-71
2020/12/22 04:13:45;;;;;;;11.00;3.97;;;;;;;;;;4966981;28;20467;-72
2020/12/22 04:16:11;;;;;;;7.90;2.90;;;;;;;;;;4964517;28;20035;-72
2020/12/22 04:18:37;;;;;;;12.35;3.50;;;;;;;;;;4963654;28;20047;-72
2020/12/22 04:21:04;;;;;;;9.50;3.72;;;;;;;;;;4964357;28;20039;-72
2020/12/22 04:23:30;;;;;;;10.05;3.97;;;;;;;;;;4972123;28;20513;-72
2020/12/22 04:25:57;;;;;;;24.48;4.93;;;;;;;;;;4969626;28;20049;-72
2020/12/22 04:28:23;;;;;;;11.40;3.72;;;;;;;;;;4964576;28;20125;-72
2020/12/22 04:30:49;;;;;;;12.68;4.35;;;;;;;;;;4969596;28;20049;-72
2020/12/22 04:33:16;;;;;;;12.50;4.10;;;;;;;;;;4967307;28;20042;-72
2020/12/22 04:35:42;;;;;;;20.35;4.97;;;;;;;;;;4969077;28;20046;-72
2020/12/22 04:38:08;;;;;;;10.82;3.30;;;;;;;;;;4966984;28;20532;-72
2020/12/22 04:40:34;;;;;;;20.20;5.68;;;;;;;;;;4969714;28;20038;-72
2020/12/22 04:43:01;;;;;;;13.25;4.05;;;;;;;;;;4966442;28;20050;-72
2020/12/22 04:45:28;;;;;;;15.40;4.87;;;;;;;;;;4966350;28;20039;-72
2020/12/22 04:47:54;;;;;;;13.45;3.90;;;;;;;;;;4963161;28;20487;-72
2020/12/22 04:50:21;;;;;;;15.00;4.28;;;;;;;;;;4970980;28;20058;-72
2020/12/22 04:52:47;;;;;;;14.80;4.30;;;;;;;;;;4967858;28;20049;-72
2020/12/22 04:55:14;;;;;;;14.23;5.70;;;;;;;;;;4964174;28;20043;-72
2020/12/22 04:57:48;;;;;;;9.10;3.33;;;;;;;;;;4965240;28;20047;-72
2020/12/22 05:00:14;;;;;;;15.48;5.03;;;;;;;;;;4963556;28;20511;-72
2020/12/22 05:02:41;;;;;;;19.10;5.85;;;;;;;;;;4970945;28;20130;-73
2020/12/22 05:05:08;;;;;;;18.80;5.28;;;;;;;;;;4969816;28;20094;-72
2020/12/22 05:07:34;;;;;;;20.40;5.63;;;;;;;;;;4969328;28;20061;-72
2020/12/22 05:10:07;;;;;;;19.02;6.03;;;;;;;;;;4970607;28;20118;-72
2020/12/22 05:12:33;;;;;;;21.70;5.80;;;;;;;;;;4967424;28;20130;-72
2020/12/22 05:15:00;;;;;;;16.08;5.97;;;;;;;;;;4963836;28;20055;-72
2020/12/22 05:17:27;;;;;;;16.70;5.75;;;;;;;;;;4962244;28;20047;-72
2020/12/22 05:19:54;;;;;;;22.92;6.30;;;;;;;;;;4962557;28;20060;-72
2020/12/22 05:22:21;;;;;;;18.80;6.43;;;;;;;;;;4966597;28;20572;-72
2020/12/22 05:24:47;;;;;;;;;;;;;;;;;;4970188;28;20039;-72
2020/12/22 05:27:14;;;;;;;18.58;6.50;;;;;;;;;;4969256;28;21111;-72
2020/12/22 05:29:40;;;;;;;17.92;5.40;;;;;;;;;;4968110;28;20051;-72
2020/12/22 05:32:08;;;;;;;15.02;6.38;;;;;;;;;;4964100;28;20057;-73
2020/12/22 05:34:34;;;;;;;21.85;7.53;;;;;;;;;;4967746;28;20098;-72
2020/12/22 05:37:06;;;;;;;16.27;5.85;;;;;;;;;;4966718;28;20047;-73
2020/12/22 05:39:36;;;;;;;11.38;4.90;;;;;;;;;;4964124;28;20057;-72
2020/12/22 05:42:11;;;;;;;28.80;8.05;;;;;;;;;;4957041;28;20399;-72
2020/12/22 05:44:40;;;;;;;20.23;8.18;;;;;;;;;;4971665;28;20093;-73
2020/12/22 05:47:06;;;;;;;24.58;8.82;;;;;;;;;;4961524;28;20042;-73
2020/12/22 05:49:33;;;;;;;28.02;9.13;;;;;;;;;;4964247;28;20047;-72
2020/12/22 05:52:00;;;;;;;29.90;9.00;;;;;;;;;;4969827;28;20055;-73
2020/12/22 05:54:26;;;;;;;;;;;;;;;;;;4965563;28;20039;-73
2020/12/22 05:57:04;;;;;;;27.27;8.32;;;;;;;;;;4965417;28;20370;-73
2020/12/22 05:59:31;;;;;;;16.50;6.40;;;;;;;;;;4967074;28;20070;-73
2020/12/22 06:01:58;;;;;;;22.10;9.65;;;;;;;;;;4968888;28;20051;-72
2020/12/22 06:04:25;;;;;;;24.30;8.70;;;;;;;;;;4960812;28;20706;-73
2020/12/22 06:06:51;;;;;;;24.17;8.50;;;;;;;;;;4961626;28;20039;-73
2020/12/22 06:09:17;;;;;;;16.08;7.30;;;;;;;;;;4959175;28;20433;-72
2020/12/22 06:11:46;;;;;;;17.20;6.13;;;;;;;;;;4967002;28;20046;-73
2020/12/22 06:14:18;;;;;;;19.05;7.45;;;;;;;;;;4963485;28;20051;-73
2020/12/22 06:16:44;;;;;;;21.17;5.93;;;;;;;;;;4961382;28;20047;-73
2020/12/22 06:19:11;;;;;;;19.38;7.85;;;;;;;;;;4962627;28;20074;-73
2020/12/22 06:21:57;;;;;;;19.70;7.82;;;;;;;;;;4962941;28;20047;-73
2020/12/22 06:24:23;;;;;;;20.48;8.48;;;;;;;;;;4967868;28;20067;-73
2020/12/22 06:26:58;;;;;;;18.83;7.25;;;;;;;;;;4959997;28;20047;-73
2020/12/22 06:29:24;;;;;;;16.90;7.78;;;;;;;;;;4961414;28;20098;-73
2020/12/22 06:31:51;;;;;;;20.00;7.53;;;;;;;;;;4961164;28;20465;-73
2020/12/22 06:34:24;;;;;;;20.38;7.95;;;;;;;;;;4963581;28;20458;-73
2020/12/22 06:36:59;;;;;;;18.13;7.82;;;;;;;;;;4958637;28;20061;-73
2020/12/22 06:39:59;;;;;;;18.85;6.85;;;;;;;;;;4959262;28;20035;-74
2020/12/22 06:42:31;;;;;;;19.15;6.90;;;;;;;;;;4932728;28;20066;-73
2020/12/22 06:45:16;;;;;;;18.77;7.68;;;;;;;;;;4958657;28;20039;-73
2020/12/22 06:47:43;;;;;;;17.77;6.30;;;;;;;;;;4963166;28;20047;-73
2020/12/22 06:50:09;;;;;;;23.33;8.05;;;;;;;;;;4960823;28;20052;-73
2020/12/22 06:52:36;;;;;;;15.30;5.78;;;;;;;;;;4966513;28;20054;-74
2020/12/22 06:55:04;;;;;;;11.45;5.63;;;;;;;;;;4964839;28;20035;-74
2020/12/22 06:57:51;;;;;;;10.27;4.75;;;;;;;;;;4968914;28;20051;-74
2020/12/22 07:00:26;;;;;;;13.48;5.47;;;;;;;;;;4964422;28;20049;-74
2020/12/22 07:03:16;;;;;;;11.98;5.50;;;;;;;;;;4964187;28;20045;-73
2020/12/22 07:05:47;;;;;;;13.35;5.45;;;;;;;;;;4968115;28;20122;-73
2020/12/22 07:08:14;;;;;;;10.27;5.10;;;;;;;;;;4969608;28;20053;-73
2020/12/22 07:10:42;;;;;;;12.95;5.10;;;;;;;;;;4967390;28;20081;-73
2020/12/22 07:13:08;;;;;;;;;;;;;;;;;;4969616;28;20682;-74
2020/12/22 07:15:36;;;;;;;11.30;5.03;;;;;;;;;;4969254;28;20440;-74
2020/12/22 07:18:07;;;;;;;9.15;4.75;;;;;;;;;;4970193;28;20049;-74
2020/12/22 07:20:33;;;;;;;9.68;4.95;;;;;;;;;;4966618;28;20047;-74
2020/12/22 07:23:00;;;;;;;8.23;3.70;;;;;;;;;;4964298;28;20138;-74
2020/12/22 07:25:34;;;;;;;10.52;4.43;;;;;;;;;;4965082;28;20137;-74
2020/12/22 07:28:01;;;;;;;9.65;4.30;;;;;;;;;;4964735;28;20053;-72
2020/12/22 07:30:28;;;;;;;10.18;4.15;;;;;;;;;;4960894;28;20392;-72
2020/12/22 07:32:57;;;;;;;8.13;4.28;;;;;;;;;;4964798;28;20039;-72
2020/12/22 07:35:23;;;;;;;7.93;3.92;;;;;;;;;;4964161;28;20039;-72
2020/12/22 07:37:52;;;;;;;7.53;3.65;;;;;;;;;;4962035;28;20054;-72
2020/12/22 07:40:18;;;;;;;8.15;3.92;;;;;;;;;;4963050;28;20542;-72
2020/12/22 07:42:44;;;;;;;6.30;3.53;;;;;;;;;;4967312;28;20046;-73
2020/12/22 07:45:10;;;;;;;8.65;3.70;;;;;;;;;;4960829;28;20045;-73
2020/12/22 07:47:36;;;;;;;6.72;3.60;;;;;;;;;;4971274;28;20050;-73
2020/12/22 07:50:13;;;;;;;7.70;3.80;;;;;;;;;;4972175;28;20090;-74
2020/12/22 07:52:57;;;;;;;6.85;3.05;;;;;;;;;;4965415;28;20038;-73
2020/12/22 07:55:23;;;;;;;9.20;4.03;;;;;;;;;;4970273;28;20091;-73
2020/12/22 07:57:51;;;;;;;7.75;3.05;;;;;;;;;;4969473;28;20053;-73
2020/12/22 08:00:17;;;;;;;9.00;3.53;;;;;;;;;;4964783;28;20043;-73
2020/12/22 08:02:43;;;;;;;4.30;2.73;;;;;;;;;;4962015;28;20590;-73
2020/12/22 08:05:10;;;;;;;5.38;3.08;;;;;;;;;;4970905;28;20073;-74
2020/12/22 08:07:38;;;;;;;5.95;3.20;;;;;;;;;;4968035;28;20046;-73
2020/12/22 08:10:09;;;;;;;5.65;2.60;;;;;;;;;;4967259;28;20498;-73
2020/12/22 08:12:36;;;;;;;6.60;2.88;;;;;;;;;;4966600;28;20102;-73
2020/12/22 08:15:03;;;;;;;3.83;3.03;;;;;;;;;;4969089;28;20053;-73
2020/12/22 08:17:29;;;;;;;5.07;2.50;;;;;;;;;;4961146;28;20043;-74
2020/12/22 08:19:55;;;;;;;5.25;2.40;;;;;;;;;;4961912;28;20042;-72
2020/12/22 08:22:22;;;;;;;5.93;2.55;;;;;;;;;;4966818;28;20487;-72
2020/12/22 08:24:49;;;;;;;4.10;2.20;;;;;;;;;;4965562;28;20039;-72
2020/12/22 08:27:15;;;;;;;3.53;2.15;;;;;;;;;;4966288;28;20070;-72
2020/12/22 08:29:42;;;;;;;2.78;1.98;;;;;;;;;;4964346;28;20067;-72
2020/12/22 08:32:08;;;;;;;3.72;2.22;;;;;;;;;;4966547;28;20057;-72
2020/12/22 08:34:35;;;;;;;3.15;2.10;;;;;;;;;;4967948;28;20126;-72
2020/12/22 08:37:09;;;;;;;2.45;2.15;;;;;;;;;;4967075;28;20062;-72
2020/12/22 08:39:39;;;;;;;3.35;1.88;;;;;;;;;;4970226;28;20137;-72
2020/12/22 08:42:06;;;;;;;2.58;1.83;;;;;;;;;;4964568;28;20047;-72
2020/12/22 08:44:33;;;;;;;2.97;1.50;;;;;;;;;;4959782;28;20045;-72
2020/12/22 08:47:11;;;;;;;1.50;1.40;;;;;;;;;;4964820;28;20047;-72
2020/12/22 08:49:38;;;;;;;1.88;1.45;;;;;;;;;;4956518;28;20062;-73
2020/12/22 08:52:14;;;;;;;1.50;1.35;;;;;;;;;;4967222;28;20077;-73
2020/12/22 08:54:44;;;;;;;1.95;1.60;;;;;;;;;;4962640;28;20043;-72
2020/12/22 08:57:18;;;;;;;1.85;1.50;;;;;;;;;;4963880;28;20606;-73
2020/12/22 08:59:47;;;;;;;2.58;1.63;;;;;;;;;;4965289;28;20105;-73
2020/12/22 09:02:43;;;;;;;2.13;1.58;;;;;;;;;;4947774;28;20071;-73
2020/12/22 09:05:14;;;;;;;1.77;1.27;;;;;;;;;;4957351;28;20059;-73
2020/12/22 09:07:41;;;;;;;2.17;1.40;;;;;;;;;;4965668;28;20094;-73
2020/12/22 09:10:08;;;;;;;2.63;1.63;;;;;;;;;;4966357;28;20049;-73
2020/12/22 09:12:35;;;;;;;3.20;1.48;;;;;;;;;;4957991;28;20043;-73
2020/12/22 09:15:03;;;;;;;2.05;1.25;;;;;;;;;;4961295;28;20043;-73
2020/12/22 09:17:30;;;;;;;1.70;1.30;;;;;;;;;;4960105;28;20097;-73
2020/12/22 09:19:57;;;;;;;1.55;1.45;;;;;;;;;;4961301;28;20495;-73
2020/12/22 09:22:24;;;;;;;3.40;1.10;;;;;;;;;;4966243;28;20410;-73
2020/12/22 09:24:56;;;;;;;1.33;1.23;;;;;;;;;;4955829;28;20513;-72
2020/12/22 09:27:32;;;;;;;2.58;1.50;;;;;;;;;;4965516;28;20046;-73
2020/12/22 09:29:59;;;;;;;1.90;1.23;;;;;;;;;;4966355;28;20562;-73
2020/12/22 09:32:26;;;;;;;2.70;1.20;;;;;;;;;;4968341;28;20121;-73
2020/12/22 09:34:52;;;;;;;2.43;1.27;;;;;;;;;;4966460;28;20494;-73
2020/12/22 09:37:21;;;;;;;1.20;0.95;;;;;;;;;;4958967;28;20382;-73
2020/12/22 09:39:49;;;;;;;1.52;0.95;;;;;;;;;;4961088;28;20059;-73
2020/12/22 09:42:16;;;;;;;1.27;1.00;;;;;;;;;;4967998;28;20042;-72
2020/12/22 09:44:42;;;;;;;1.10;1.00;;;;;;;;;;4961889;28;20113;-72
2020/12/22 09:47:09;;;;;;;0.83;0.80;;;;;;;;;;4965262;28;20121;-72
2020/12/22 09:49:36;;;;;;;1.73;0.90;;;;;;;;;;4962622;28;20948;-73
2020/12/22 09:52:02;;;;;;;2.00;0.90;;;;;;;;;;4963961;28;20102;-72
2020/12/22 09:54:28;;;;;;;1.25;0.90;;;;;;;;;;4960050;28;20402;-72
2020/12/22 09:56:54;;;;;;;1.13;0.47;;;;;;;;;;4960442;28;20109;-72
2020/12/22 09:59:20;;;;;;;2.38;0.85;;;;;;;;;;4959858;28;20035;-73
2020/12/22 10:01:47;;;;;;;1.38;0.70;;;;;;;;;;4963779;28;20043;-72
2020/12/22 10:04:13;;;;;;;4.37;0.90;;;;;;;;;;4964433;28;20050;-72
2020/12/22 10:06:40;;;;;;;1.63;1.10;;;;;;;;;;4958326;28;20289;-72
2020/12/22 10:09:08;;;;;;;0.80;0.70;;;;;;;;;;4967604;28;20057;-72
2020/12/22 10:11:35;;;;;;;0.88;0.70;;;;;;;;;;4966577;28;20050;-72
2020/12/22 10:14:02;;;;;;;0.73;0.60;;;;;;;;;;4965172;28;20034;-72
2020/12/22 10:16:28;;;;;;;1.63;0.85;;;;;;;;;;4962649;28;20051;-72
2020/12/22 10:18:55;;;;;;;0.68;0.68;;;;;;;;;;4955877;28;20043;-72
2020/12/22 10:21:21;;;;;;;0.68;0.68;;;;;;;;;;4965002;28;20045;-72
2020/12/22 10:23:48;;;;;;;1.10;0.70;;;;;;;;;;4974212;28;20043;-72
2020/12/22 10:26:15;;;;;;;0.63;0.50;;;;;;;;;;4964112;28;20039;-72
2020/12/22 10:28:42;;;;;;;0.60;0.50;;;;;;;;;;4964631;28;20498;-73
2020/12/22 10:31:16;;;;;;;0.88;0.73;;;;;;;;;;4961971;28;20039;-72
2020/12/22 10:33:42;;;;;;;1.13;0.70;;;;;;;;;;4965264;28;20509;-72
2020/12/22 10:36:13;;;;;;;3.38;0.80;;;;;;;;;;4960560;28;20133;-72
2020/12/22 10:38:48;;;;;;;0.60;0.57;;;;;;;;;;4961242;28;20054;-72
2020/12/22 10:41:14;;;;;;;1.75;0.82;;;;;;;;;;4966802;28;20122;-72
2020/12/22 10:43:40;;;;;;;0.90;0.80;;;;;;;;;;4943273;29;20051;-72
2020/12/22 10:46:08;;;;;;;1.80;0.75;;;;;;;;;;4961229;28;20035;-72
2020/12/22 10:48:34;;;;;;;1.42;1.00;;;;;;;;;;4962626;28;20050;-73
2020/12/22 10:51:00;;;;;;;0.98;0.80;;;;;;;;;;4965973;28;20066;-72
2020/12/22 10:53:26;;;;;;;1.80;1.20;;;;;;;;;;4965504;28;20089;-72
2020/12/22 10:55:55;;;;;;;1.85;1.02;;;;;;;;;;4965138;28;20395;-72
2020/12/22 10:58:22;;;;;;;0.88;0.85;;;;;;;;;;4961167;28;20050;-73
2020/12/22 11:00:48;;;;;;;0.90;0.90;;;;;;;;;;4963015;28;20039;-72
2020/12/22 11:03:19;;;;;;;1.05;0.85;;;;;;;;;;4964235;28;20083;-72
2020/12/22 11:06:08;;;;;;;3.15;0.70;;;;;;;;;;4958411;28;20042;-73
2020/12/22 11:08:35;;;;;;;1.20;0.88;;;;;;;;;;4964507;28;20070;-72
2020/12/22 11:11:01;;;;;;;0.90;0.73;;;;;;;;;;4968336;28;20491;-73
2020/12/22 11:13:28;;;;;;;2.50;1.10;;;;;;;;;;4964623;28;20043;-73
2020/12/22 11:15:58;;;;;;;0.80;0.80;;;;;;;;;;4966848;28;20039;-73
2020/12/22 11:18:24;;;;;;;1.17;0.90;;;;;;;;;;4968859;28;20051;-73
2020/12/22 11:20:50;;;;;;;1.48;0.80;;;;;;;;;;4958145;28;20055;-73
2020/12/22 11:23:17;;;;;;;1.73;0.88;;;;;;;;;;4964315;28;20046;-73
2020/12/22 11:25:44;;;;;;;2.10;0.73;;;;;;;;;;4962099;28;20039;-73
2020/12/22 11:28:11;;;;;;;2.20;1.20;;;;;;;;;;4962389;28;20125;-73
2020/12/22 11:30:37;;;;;;;3.00;1.00;;;;;;;;;;4970996;28;20106;-73
2020/12/22 11:33:04;;;;;;;1.40;0.93;;;;;;;;;;4965810;28;20043;-73
2020/12/22 11:35:31;;;;;;;1.05;0.80;;;;;;;;;;4971536;28;20077;-73
2020/12/22 11:37:57;;;;;;;2.33;1.40;;;;;;;;;;4963433;28;20053;-73
2020/12/22 11:40:24;;;;;;;1.10;0.93;;;;;;;;;;4960530;28;20171;-73
2020/12/22 11:42:50;;;;;;;2.63;1.08;;;;;;;;;;4961513;28;20086;-73
2020/12/22 11:45:16;;;;;;;1.40;1.10;;;;;;;;;;4963126;28;20043;-73
2020/12/22 11:47:43;;;;;;;1.77;0.90;;;;;;;;;;4967090;28;20066;-73
2020/12/22 11:50:09;;;;;;;1.08;0.98;;;;;;;;;;4970780;28;20050;-73
2020/12/22 11:52:36;;;;;;;2.53;1.13;;;;;;;;;;4971616;28;20093;-73
2020/12/22 11:55:02;;;;;;;1.33;1.23;;;;;;;;;;4964322;28;20047;-73
2020/12/22 11:57:28;;;;;;;2.17;1.13;;;;;;;;;;4960441;28;20039;-73
2020/12/22 11:59:54;;;;;;;1.33;1.08;;;;;;;;;;4971423;28;20039;-74
2020/12/22 12:02:20;;;;;;;1.48;1.02;;;;;;;;;;4951718;28;20154;-74
2020/12/22 12:04:46;;;;;;;1.17;1.05;;;;;;;;;;4963055;28;20061;-73
2020/12/22 12:07:12;;;;;;;1.98;1.20;;;;;;;;;;4961547;28;20115;-74
2020/12/22 12:09:39;;;;;;;1.23;1.10;;;;;;;;;;4968796;28;20054;-73
2020/12/22 12:12:05;;;;;;;1.63;0.90;;;;;;;;;;4966609;28;20536;-73
2020/12/22 12:14:32;;;;;;;1.60;1.27;;;;;;;;;;4971619;28;20093;-73
2020/12/22 12:16:58;;;;;;;4.18;1.40;;;;;;;;;;4971424;28;20090;-73
2020/12/22 12:19:26;;;;;;;1.40;0.98;;;;;;;;;;4962384;28;20125;-73
2020/12/22 12:21:54;;;;;;;4.55;1.30;;;;;;;;;;4969895;28;20154;-74
2020/12/22 12:24:21;;;;;;;1.20;1.10;;;;;;;;;;4972398;28;20497;-73
2020/12/22 12:26:47;;;;;;;2.35;1.20;;;;;;;;;;4965660;28;20053;-73
2020/12/22 12:29:14;;;;;;;2.33;1.10;;;;;;;;;;4970373;28;20056;-73
2020/12/22 12:31:40;;;;;;;1.70;1.10;;;;;;;;;;4960904;28;20053;-74
2020/12/22 12:34:07;;;;;;;1.20;1.00;;;;;;;;;;4973257;28;20043;-73
2020/12/22 12:36:34;;;;;;;1.73;0.93;;;;;;;;;;4968511;28;20566;-73
2020/12/22 12:39:02;;;;;;;2.70;1.15;;;;;;;;;;4966205;28;20577;-73
2020/12/22 12:41:29;;;;;;;1.02;0.90;;;;;;;;;;4966720;28;20125;-73
2020/12/22 12:43:56;;;;;;;2.92;0.95;;;;;;;;;;4973331;28;20086;-73
2020/12/22 12:46:22;;;;;;;4.75;0.90;;;;;;;;;;4971917;28;20130;-73
2020/12/22 12:48:48;;;;;;;2.47;0.98;;;;;;;;;;4964041;28;20196;-73
2020/12/22 12:51:14;;;;;;;2.33;1.30;;;;;;;;;;4969571;28;20042;-73
2020/12/22 12:53:40;;;;;;;2.17;1.00;;;;;;;;;;4970475;28;20109;-73
2020/12/22 12:56:16;;;;;;;1.00;0.90;;;;;;;;;;4960111;28;20488;-73
2020/12/22 12:58:43;;;;;;;2.15;0.98;;;;;;;;;;4967870;28;20110;-73
2020/12/22 13:01:10;;;;;;;4.57;1.17;;;;;;;;;;4967816;28;20134;-72
2020/12/22 13:03:40;;;;;;;2.08;1.30;;;;;;;;;;4968910;28;20503;-72
2020/12/22 13:06:07;;;;;;;1.60;1.00;;;;;;;;;;4966711;28;20046;-72
2020/12/22 13:08:33;;;;;;;2.20;1.20;;;;;;;;;;4968903;28;20046;-72
2020/12/22 13:11:00;;;;;;;2.28;1.20;;;;;;;;;;4965718;28;20035;-72
2020/12/22 13:13:27;;;;;;;0.77;0.75;;;;;;;;;;4966187;28;20057;-72
2020/12/22 13:15:53;;;;;;;1.88;1.30;;;;;;;;;;4960632;28;20675;-72
2020/12/22 13:18:19;;;;;;;7.38;1.35;;;;;;;;;;4970668;28;20399;-72
2020/12/22 13:20:45;;;;;;;2.47;1.42;;;;;;;;;;4966091;28;20395;-72
2020/12/22 13:23:12;;;;;;;1.48;1.30;;;;;;;;;;4967921;28;20078;-72
2020/12/22 13:25:38;;;;;;;2.97;1.58;;;;;;;;;;4964597;28;20039;-72
2020/12/22 13:28:06;;;;;;;2.67;1.60;;;;;;;;;;4968101;28;20113;-72
2020/12/22 13:30:33;;;;;;;2.95;1.50;;;;;;;;;;4970166;28;20092;-72
2020/12/22 13:32:59;;;;;;;1.63;1.38;;;;;;;;;;4970353;28;20554;-72
2020/12/22 13:35:26;;;;;;;4.43;1.88;;;;;;;;;;4966423;28;20079;-72
2020/12/22 13:38:13;;;;;;;3.33;1.38;;;;;;;;;;4964204;28;20134;-72
2020/12/22 13:40:39;;;;;;;2.75;1.70;;;;;;;;;;4964488;28;20075;-72
2020/12/22 13:43:06;;;;;;;1.80;1.40;;;;;;;;;;4971076;28;20054;-71
2020/12/22 13:45:32;;;;;;;2.25;1.23;;;;;;;;;;4968554;28;20105;-72
2020/12/22 13:47:58;;;;;;;1.77;1.50;;;;;;;;;;4964827;28;20047;-71
2020/12/22 13:50:24;;;;;;;3.75;1.40;;;;;;;;;;4961771;28;20050;-71
2020/12/22 13:52:51;;;;;;;8.02;1.90;;;;;;;;;;4962585;28;20055;-71
2020/12/22 13:55:17;;;;;;;4.80;1.70;;;;;;;;;;4963089;28;20046;-71
2020/12/22 13:57:46;;;;;;;4.03;1.83;;;;;;;;;;4967344;28;20451;-71
2020/12/22 14:00:13;;;;;;;3.25;2.05;;;;;;;;;;4962884;28;20090;-72
2020/12/22 14:02:39;;;;;;;3.10;1.70;;;;;;;;;;4964111;28;20074;-72
2020/12/22 14:05:06;;;;;;;4.75;1.88;;;;;;;;;;4967219;28;20050;-72
2020/12/22 14:07:32;;;;;;;2.25;1.50;;;;;;;;;;4961735;28;20050;-72
2020/12/22 14:09:58;;;;;;;5.25;2.08;;;;;;;;;;4956342;28;20051;-72
2020/12/22 14:12:24;;;;;;;3.10;1.92;;;;;;;;;;4965281;28;20038;-71
2020/12/22 14:14:50;;;;;;;9.48;2.67;;;;;;;;;;4957422;28;20507;-72
2020/12/22 14:17:17;;;;;;;3.38;2.05;;;;;;;;;;4965192;28;20057;-72
2020/12/22 14:19:43;;;;;;;7.55;2.13;;;;;;;;;;4965438;28;20069;-72
2020/12/22 14:22:09;;;;;;;28.98;3.00;;;;;;;;;;4967620;28;20446;-72
2020/12/22 14:24:36;;;;;;;8.70;2.88;;;;;;;;;;4958218;28;20059;-72
2020/12/22 14:27:12;;;;;;;2.67;2.10;;;;;;;;;;4958615;28;20047;-72
2020/12/22 14:29:38;;;;;;;9.95;2.60;;;;;;;;;;4959518;28;20074;-71
2020/12/22 14:32:04;;;;;;;4.68;2.78;;;;;;;;;;4966183;28;20071;-71
2020/12/22 14:34:31;;;;;;;8.07;3.05;;;;;;;;;;4966094;28;20035;-71
2020/12/22 14:36:58;;;;;;;33.27;3.67;;;;;;;;;;4965124;28;20051;-71
2020/12/22 14:39:24;;;;;;;11.50;3.25;;;;;;;;;;4962702;28;20039;-72
2020/12/22 14:41:50;;;;;;;18.10;3.28;;;;;;;;;;4963071;28;20651;-71